Time;durP1;ratioP1;P1;durP2;ratioP2;P2;SDS_P1;SDS_P2;PMS_P1;PMS_P2;Temp;Humidity;BMP_temperature;BMP_pressure;BME280_temperature;BME280_humidity;BME280_pressure;Samples;Min_cycle;Max_cycle;Signal;HPM_P1;HPM_P2
2023/05/30 00:01:48;;;;;;;6.63;2.93;;;17.40;99.90;;;;;;5038755;28;20474;-56
2023/05/30 00:04:14;;;;;;;6.30;3.67;;;17.40;99.90;;;;;;5043872;28;20448;-57
2023/05/30 00:06:39;;;;;;;5.30;2.77;;;17.30;99.90;;;;;;5047623;28;20185;-57
2023/05/30 00:09:05;;;;;;;4.70;3.23;;;17.30;99.90;;;;;;5035344;28;20189;-58
2023/05/30 00:11:31;;;;;;;6.67;2.80;;;17.40;99.90;;;;;;5018591;28;20206;-57
2023/05/30 00:13:57;;;;;;;5.47;2.67;;;17.40;99.90;;;;;;5019342;28;20211;-57
2023/05/30 00:16:23;;;;;;;5.30;3.43;;;17.40;99.90;;;;;;5024144;28;20200;-58
2023/05/30 00:18:52;;;;;;;5.03;3.43;;;17.30;99.90;;;;;;5028646;28;20534;-56
2023/05/30 00:21:18;;;;;;;4.90;3.20;;;17.40;99.90;;;;;;5032221;28;20478;-57
2023/05/30 00:23:45;;;;;;;4.90;3.20;;;17.40;99.90;;;;;;5019448;28;20439;-57
2023/05/30 00:26:11;;;;;;;6.67;3.10;;;17.30;99.90;;;;;;5018183;28;20451;-55
2023/05/30 00:28:37;;;;;;;6.80;4.27;;;17.30;99.90;;;;;;5020313;28;20462;-56
2023/05/30 00:31:03;;;;;;;6.00;3.20;;;17.30;99.90;;;;;;5029638;28;20442;-57
2023/05/30 00:33:29;;;;;;;6.30;2.90;;;17.20;99.90;;;;;;5045492;28;21021;-55
2023/05/30 00:35:54;;;;;;;4.20;3.00;;;17.20;99.90;;;;;;5046900;28;20240;-56
2023/05/30 00:38:20;;;;;;;5.60;2.63;;;17.10;99.90;;;;;;5049478;28;20193;-55
2023/05/30 00:40:46;;;;;;;5.80;3.20;;;17.10;99.90;;;;;;5048997;28;20674;-55
2023/05/30 00:43:12;;;;;;;5.40;2.97;;;17.10;99.90;;;;;;5045962;28;20195;-56
2023/05/30 00:45:37;;;;;;;7.70;3.10;;;17.00;99.90;;;;;;5047073;28;20257;-57
2023/05/30 00:48:04;;;;;;;6.10;3.90;;;17.00;99.90;;;;;;5047671;28;20442;-55
2023/05/30 00:50:32;;;;;;;5.20;3.40;;;16.90;99.90;;;;;;5045615;28;20184;-57
2023/05/30 00:52:58;;;;;;;4.90;3.53;;;16.90;99.90;;;;;;5046260;28;20449;-56
2023/05/30 00:55:26;;;;;;;4.80;3.30;;;16.90;99.90;;;;;;5046054;28;20467;-56
2023/05/30 00:57:52;;;;;;;3.23;2.57;;;16.90;99.90;;;;;;5045745;28;20484;-57
2023/05/30 01:00:19;;;;;;;8.90;3.60;;;16.90;99.90;;;;;;5046289;28;20459;-55
2023/05/30 01:02:46;;;;;;;4.47;3.20;;;16.90;99.90;;;;;;5040808;28;20197;-56
2023/05/30 01:05:14;;;;;;;4.43;3.13;;;16.80;99.90;;;;;;5044732;28;20866;-56
2023/05/30 01:07:43;;;;;;;5.13;3.37;;;16.80;99.90;;;;;;5048281;28;20438;-56
2023/05/30 01:10:11;;;;;;;3.07;2.50;;;16.80;99.90;;;;;;5045211;28;20525;-57
2023/05/30 01:13:14;;;;;;;4.50;2.87;;;16.70;99.90;;;;;;5046528;28;20482;-56
2023/05/30 01:15:52;;;;;;;4.27;3.13;;;16.60;99.90;;;;;;5048566;28;21179;-56
2023/05/30 01:18:40;;;;;;;5.07;2.93;;;16.70;99.90;;;;;;5047415;28;20952;-56
2023/05/30 01:21:10;;;;;;;3.60;2.60;;;16.80;99.90;;;;;;5044479;28;20473;-56
2023/05/30 01:23:50;;;;;;;5.70;2.73;;;16.70;99.90;;;;;;5045330;28;20500;-56
2023/05/30 01:26:18;;;;;;;4.67;3.07;;;16.60;99.90;;;;;;5045547;28;20570;-56
2023/05/30 01:28:46;;;;;;;7.00;2.80;;;16.60;99.90;;;;;;5045219;28;20467;-57
2023/05/30 01:31:13;;;;;;;6.07;2.90;;;16.50;99.90;;;;;;5047352;28;20453;-57
2023/05/30 01:33:40;;;;;;;4.83;3.07;;;16.50;99.90;;;;;;5043860;28;20803;-56
2023/05/30 01:36:07;;;;;;;5.60;2.67;;;16.50;99.90;;;;;;5046466;28;20443;-56
2023/05/30 01:38:34;;;;;;;5.97;3.20;;;16.40;99.90;;;;;;5048312;28;20466;-57
2023/05/30 01:41:00;;;;;;;5.83;3.50;;;16.40;99.90;;;;;;5046131;28;20507;-56
2023/05/30 01:43:32;;;;;;;6.73;3.30;;;16.30;99.90;;;;;;5048095;28;20537;-55
2023/05/30 01:46:36;;;;;;;4.43;2.50;;;16.30;99.90;;;;;;5047422;28;20473;-56
2023/05/30 01:49:36;;;;;;;6.40;3.07;;;16.30;99.90;;;;;;5045081;28;20441;-55
2023/05/30 01:52:14;;;;;;;3.80;3.20;;;16.30;99.90;;;;;;5036215;28;20558;-56
2023/05/30 01:54:44;;;;;;;7.40;2.80;;;16.20;99.90;;;;;;5043843;28;20454;-56
2023/05/30 01:57:14;;;;;;;7.13;2.90;;;16.10;99.90;;;;;;5041209;28;20447;-56
2023/05/30 01:59:42;;;;;;;4.50;3.27;;;16.00;99.90;;;;;;5043211;28;20482;-56
2023/05/30 02:02:10;;;;;;;7.60;2.87;;;15.90;99.90;;;;;;5043068;28;20467;-57
2023/05/30 02:04:35;;;;;;;7.63;2.80;;;15.80;99.90;;;;;;5042886;28;20454;-54
2023/05/30 02:07:05;;;;;;;4.00;3.20;;;15.80;99.90;;;;;;5045181;28;20435;-57
2023/05/30 02:09:31;;;;;;;4.70;2.70;;;15.90;99.90;;;;;;5044517;28;20629;-56
2023/05/30 02:11:56;;;;;;;9.83;3.53;;;15.80;99.90;;;;;;5039928;28;20453;-56
2023/05/30 02:14:22;;;;;;;6.33;3.37;;;15.80;99.90;;;;;;5043481;28;20208;-56
2023/05/30 02:16:48;;;;;;;7.70;3.83;;;15.80;99.90;;;;;;5044588;28;20758;-56
2023/05/30 02:19:14;;;;;;;7.40;3.40;;;15.80;99.90;;;;;;5038832;28;20451;-55
2023/05/30 02:21:41;;;;;;;5.23;3.47;;;15.70;99.90;;;;;;5041882;28;20475;-55
2023/05/30 02:24:07;;;;;;;3.50;2.97;;;15.70;99.90;;;;;;5045850;28;20451;-57
2023/05/30 02:26:35;;;;;;;14.73;4.93;;;15.60;99.90;;;;;;5043129;28;20438;-56
2023/05/30 02:29:00;;;;;;;5.97;3.60;;;15.60;99.90;;;;;;5042551;28;20504;-56
2023/05/30 02:31:26;;;;;;;7.17;3.73;;;15.50;99.90;;;;;;5046279;28;20859;-55
2023/05/30 02:33:52;;;;;;;5.67;3.37;;;15.50;99.90;;;;;;5044596;28;20188;-55
2023/05/30 02:36:17;;;;;;;6.63;3.60;;;15.40;99.90;;;;;;5047115;28;20208;-55
2023/05/30 02:38:43;;;;;;;7.23;3.53;;;15.40;99.90;;;;;;5054371;28;20183;-57
2023/05/30 02:41:08;;;;;;;10.23;3.80;;;15.30;99.90;;;;;;5045969;28;20301;-57
2023/05/30 02:43:34;;;;;;;7.33;3.20;;;15.30;99.90;;;;;;5045084;28;20275;-55
2023/05/30 02:46:01;;;;;;;5.27;3.37;;;15.20;99.90;;;;;;5042255;28;20651;-55
2023/05/30 02:48:26;;;;;;;5.80;3.40;;;15.10;99.90;;;;;;5044480;28;20235;-55
2023/05/30 02:50:52;;;;;;;8.30;3.50;;;15.20;99.90;;;;;;5037935;28;20459;-53
2023/05/30 02:53:17;;;;;;;9.53;3.77;;;15.10;99.90;;;;;;5044737;28;20215;-53
2023/05/30 02:55:43;;;;;;;5.23;3.53;;;15.10;99.90;;;;;;5046665;28;20185;-54
2023/05/30 02:58:11;;;;;;;4.70;2.87;;;15.10;99.90;;;;;;5043010;28;20224;-55
2023/05/30 03:00:38;;;;;;;4.63;3.50;;;15.10;99.90;;;;;;5048377;28;20916;-54
2023/05/30 03:03:03;;;;;;;7.80;3.73;;;15.10;99.90;;;;;;5045313;28;20478;-53
2023/05/30 03:05:29;;;;;;;8.63;3.33;;;15.00;99.90;;;;;;5046074;28;20857;-56
2023/05/30 03:07:55;;;;;;;5.47;3.50;;;14.90;99.90;;;;;;5044743;28;20183;-53
2023/05/30 03:10:21;;;;;;;5.03;3.50;;;14.90;99.90;;;;;;5041906;28;20188;-53
2023/05/30 03:12:46;;;;;;;7.87;3.20;;;14.90;99.90;;;;;;5045361;28;20450;-54
2023/05/30 03:15:12;;;;;;;5.47;3.43;;;14.70;99.90;;;;;;5043954;28;20733;-54
2023/05/30 03:17:41;;;;;;;5.50;3.47;;;14.80;99.90;;;;;;5043115;28;20250;-54
2023/05/30 03:20:07;;;;;;;6.50;3.83;;;14.90;99.90;;;;;;5043379;28;20189;-53
2023/05/30 03:22:34;;;;;;;6.53;3.27;;;15.00;99.90;;;;;;5043969;28;20465;-52
2023/05/30 03:24:59;;;;;;;8.80;3.43;;;15.00;99.90;;;;;;5044264;28;20801;-54
2023/05/30 03:27:25;;;;;;;8.27;4.70;;;15.10;99.90;;;;;;5040096;28;20448;-55
2023/05/30 03:29:52;;;;;;;6.50;3.90;;;15.20;99.90;;;;;;5047784;28;20199;-55
2023/05/30 03:32:18;;;;;;;7.90;3.47;;;15.30;99.90;;;;;;5042535;28;20539;-52
2023/05/30 03:34:45;;;;;;;6.87;3.27;;;15.20;99.90;;;;;;5042388;28;20451;-52
2023/05/30 03:37:11;;;;;;;8.93;3.87;;;15.10;99.90;;;;;;5043636;28;20184;-54
2023/05/30 03:39:37;;;;;;;11.03;3.50;;;15.10;99.90;;;;;;5040184;28;20967;-52
2023/05/30 03:42:03;;;;;;;7.57;3.90;;;15.10;99.90;;;;;;5047619;28;20507;-54
2023/05/30 03:44:28;;;;;;;7.50;2.90;;;15.20;99.90;;;;;;5045388;28;20482;-53
2023/05/30 03:46:54;;;;;;;8.67;3.27;;;15.20;99.90;;;;;;5043597;28;20574;-54
2023/05/30 03:49:20;;;;;;;6.47;3.93;;;15.20;99.90;;;;;;5041445;28;20189;-55
2023/05/30 03:51:45;;;;;;;9.30;3.53;;;15.10;99.90;;;;;;5044551;28;20254;-52
2023/05/30 03:54:11;;;;;;;5.00;3.50;;;14.90;99.90;;;;;;5045638;28;20447;-52
2023/05/30 03:56:37;;;;;;;5.83;3.80;;;14.80;99.90;;;;;;5041404;28;20196;-51
2023/05/30 03:59:02;;;;;;;4.70;3.80;;;14.70;99.90;;;;;;5044876;28;20239;-54
2023/05/30 04:01:28;;;;;;;5.40;4.00;;;14.70;99.90;;;;;;5042171;28;20639;-54
2023/05/30 04:03:54;;;;;;;6.60;3.83;;;14.70;99.90;;;;;;5043043;28;20188;-54
2023/05/30 04:06:20;;;;;;;6.20;3.83;;;14.80;99.90;;;;;;5040424;28;20503;-55
2023/05/30 04:08:45;;;;;;;7.00;3.87;;;14.80;99.90;;;;;;5042161;28;20231;-54
2023/05/30 04:11:11;;;;;;;6.67;4.00;;;14.90;99.90;;;;;;5043879;28;20690;-54
2023/05/30 04:13:36;;;;;;;5.10;3.40;;;15.00;99.90;;;;;;5048034;28;20189;-53
2023/05/30 04:16:02;;;;;;;7.27;3.77;;;15.10;99.90;;;;;;5043520;28;20193;-54
2023/05/30 04:18:28;;;;;;;9.47;3.40;;;15.10;99.90;;;;;;5045027;28;20197;-52
2023/05/30 04:20:53;;;;;;;4.37;3.20;;;15.20;99.90;;;;;;5047384;28;20255;-54
2023/05/30 04:23:19;;;;;;;8.90;3.90;;;15.40;99.90;;;;;;5047942;28;20204;-53
2023/05/30 04:25:47;;;;;;;6.90;3.70;;;15.50;99.90;;;;;;5044341;28;20215;-54
2023/05/30 04:28:16;;;;;;;6.60;3.67;;;15.60;99.90;;;;;;5046933;28;20264;-52
2023/05/30 04:30:43;;;;;;;7.30;3.77;;;15.80;99.90;;;;;;5043773;28;20458;-55
2023/05/30 04:33:09;;;;;;;7.67;3.97;;;15.90;99.90;;;;;;5048196;28;20952;-54
2023/05/30 04:35:35;;;;;;;5.60;3.70;;;16.10;99.90;;;;;;5047344;28;20576;-54
2023/05/30 04:38:00;;;;;;;6.03;3.43;;;16.20;99.90;;;;;;5047457;28;20542;-57
2023/05/30 04:40:27;;;;;;;6.30;3.77;;;16.30;99.90;;;;;;5046674;28;20268;-54
2023/05/30 04:42:53;;;;;;;6.67;3.57;;;16.40;99.90;;;;;;5048021;28;20635;-52
2023/05/30 04:45:19;;;;;;;7.47;4.03;;;16.60;99.90;;;;;;5049241;28;20455;-53
2023/05/30 04:47:46;;;;;;;6.07;3.60;;;16.60;99.90;;;;;;5046525;28;20192;-56
2023/05/30 04:50:15;;;;;;;7.80;3.80;;;16.40;99.90;;;;;;5047840;28;20195;-53
2023/05/30 04:52:44;;;;;;;7.67;4.27;;;16.50;99.90;;;;;;5045153;28;20956;-54
2023/05/30 04:55:10;;;;;;;5.00;3.40;;;16.40;99.90;;;;;;5045076;28;20444;-54
2023/05/30 04:57:38;;;;;;;8.43;4.10;;;16.40;99.90;;;;;;5048207;28;20443;-55
2023/05/30 05:00:09;;;;;;;8.37;3.53;;;16.20;99.90;;;;;;5047026;28;20496;-53
2023/05/30 05:02:37;;;;;;;5.93;3.33;;;16.10;99.90;;;;;;5048704;28;20473;-53
2023/05/30 05:05:02;;;;;;;6.23;3.20;;;16.10;99.90;;;;;;5046703;28;20542;-53
2023/05/30 05:07:28;;;;;;;7.43;3.73;;;16.20;99.90;;;;;;5043969;28;20489;-55
2023/05/30 05:09:53;;;;;;;8.77;3.70;;;16.20;99.90;;;;;;5042502;28;20270;-54
2023/05/30 05:12:19;;;;;;;6.87;3.50;;;16.30;99.90;;;;;;5042500;28;20180;-53
2023/05/30 05:14:45;;;;;;;7.13;4.27;;;16.40;99.90;;;;;;5046769;28;20262;-55
2023/05/30 05:17:10;;;;;;;11.00;3.57;;;16.60;99.90;;;;;;5045719;28;20255;-56
2023/05/30 05:19:36;;;;;;;9.60;3.57;;;16.60;99.90;;;;;;5045939;28;20185;-53
2023/05/30 05:22:02;;;;;;;4.60;3.70;;;16.50;99.90;;;;;;5041419;28;20240;-54
2023/05/30 05:24:28;;;;;;;9.50;3.87;;;16.50;99.90;;;;;;5044970;28;20267;-55
2023/05/30 05:26:54;;;;;;;6.97;3.83;;;16.50;99.90;;;;;;5046404;28;20870;-55
2023/05/30 05:29:19;;;;;;;6.50;4.67;;;16.70;99.90;;;;;;5045968;28;20451;-55
2023/05/30 05:31:45;;;;;;;6.90;4.00;;;16.60;99.90;;;;;;5040584;28;20200;-54
2023/05/30 05:34:11;;;;;;;8.20;3.90;;;16.50;99.90;;;;;;5045760;28;20355;-52
2023/05/30 05:36:37;;;;;;;5.03;2.80;;;16.50;99.90;;;;;;5041942;28;20936;-55
2023/05/30 05:39:02;;;;;;;9.40;3.67;;;16.60;99.90;;;;;;5038517;28;20186;-53
2023/05/30 05:41:28;;;;;;;7.60;3.57;;;16.80;99.90;;;;;;5045112;28;20369;-54
2023/05/30 05:43:54;;;;;;;8.70;3.70;;;16.60;99.90;;;;;;5043058;28;20202;-56
2023/05/30 05:46:20;;;;;;;6.07;3.30;;;16.60;99.90;;;;;;5038964;28;20188;-55
2023/05/30 05:48:46;;;;;;;6.77;3.77;;;16.70;99.90;;;;;;5040693;28;20443;-55
2023/05/30 05:51:11;;;;;;;7.70;3.90;;;16.80;99.90;;;;;;5041869;28;20193;-56
2023/05/30 05:53:37;;;;;;;6.93;4.57;;;16.70;99.90;;;;;;5047816;28;20269;-56
2023/05/30 05:56:03;;;;;;;4.80;3.20;;;16.80;99.90;;;;;;5045079;28;20234;-56
2023/05/30 05:58:28;;;;;;;8.77;3.30;;;16.90;99.90;;;;;;5044989;28;20251;-56
2023/05/30 06:00:54;;;;;;;5.43;2.77;;;17.00;99.90;;;;;;5045692;28;20296;-56
2023/05/30 06:03:20;;;;;;;5.70;3.03;;;17.20;99.90;;;;;;5042046;28;20246;-57
2023/05/30 06:05:45;;;;;;;5.63;2.90;;;17.30;99.90;;;;;;5045704;28;20287;-57
2023/05/30 06:08:11;;;;;;;4.23;2.40;;;17.50;99.90;;;;;;5043829;28;20192;-57
2023/05/30 06:10:36;;;;;;;4.10;2.30;;;17.40;99.90;;;;;;5043481;28;20193;-55
2023/05/30 06:13:02;;;;;;;3.63;2.50;;;17.30;99.90;;;;;;5036832;28;20227;-56
2023/05/30 06:15:28;;;;;;;6.50;3.00;;;17.50;99.90;;;;;;5042738;28;20226;-56
2023/05/30 06:17:53;;;;;;;5.20;2.93;;;17.70;99.90;;;;;;5048213;28;20259;-56
2023/05/30 06:20:19;;;;;;;3.27;2.40;;;17.60;99.90;;;;;;5040545;28;20207;-57
2023/05/30 06:22:44;;;;;;;4.80;2.13;;;17.50;99.90;;;;;;5046711;28;20242;-58
2023/05/30 06:25:10;;;;;;;4.90;2.67;;;17.70;99.90;;;;;;5044461;28;20184;-56
2023/05/30 06:27:36;;;;;;;5.57;2.63;;;17.80;99.90;;;;;;5046803;28;20181;-58
2023/05/30 06:30:01;;;;;;;3.80;2.17;;;17.90;99.90;;;;;;5045499;28;20190;-57
2023/05/30 06:32:27;;;;;;;7.87;2.90;;;17.80;99.90;;;;;;5046265;28;20192;-58
2023/05/30 06:34:53;;;;;;;6.27;2.90;;;18.00;99.90;;;;;;5047813;28;20612;-56
2023/05/30 06:37:18;;;;;;;8.20;2.87;;;18.10;99.90;;;;;;5044818;28;20336;-57
2023/05/30 06:39:44;;;;;;;5.80;2.60;;;17.70;99.90;;;;;;5044095;28;20185;-58
2023/05/30 06:42:10;;;;;;;6.33;2.40;;;17.60;99.90;;;;;;5042975;28;20216;-57
2023/05/30 06:44:37;;;;;;;4.40;2.30;;;17.80;99.90;;;;;;5044242;28;20192;-56
2023/05/30 06:47:03;;;;;;;5.53;2.10;;;17.90;99.90;;;;;;5045014;28;20795;-57
2023/05/30 06:49:29;;;;;;;4.43;2.13;;;18.10;99.90;;;;;;5041592;28;20530;-57
2023/05/30 06:51:55;;;;;;;7.37;2.20;;;18.30;99.90;;;;;;5046058;28;20444;-57
2023/05/30 06:54:21;;;;;;;4.23;2.00;;;18.20;99.90;;;;;;5043698;28;20464;-57
2023/05/30 06:56:47;;;;;;;6.47;1.87;;;18.20;99.90;;;;;;5046709;28;20195;-57
2023/05/30 06:59:12;;;;;;;5.30;1.43;;;18.30;99.90;;;;;;5041162;28;20263;-57
2023/05/30 07:01:38;;;;;;;3.23;1.23;;;18.30;99.90;;;;;;5043310;28;20566;-58
2023/05/30 07:04:05;;;;;;;2.97;1.50;;;18.20;99.90;;;;;;5040609;28;20205;-59
2023/05/30 07:06:31;;;;;;;1.93;1.47;;;18.30;99.90;;;;;;5043673;28;20447;-58
2023/05/30 07:08:57;;;;;;;5.00;1.63;;;18.50;99.90;;;;;;5044124;28;20185;-57
2023/05/30 07:11:23;;;;;;;7.23;1.57;;;18.70;99.90;;;;;;5044003;28;20805;-57
2023/05/30 07:13:48;;;;;;;2.63;1.67;;;18.80;99.90;;;;;;5047160;28;20443;-58
2023/05/30 07:16:14;;;;;;;2.23;1.10;;;18.70;99.90;;;;;;5038700;28;20323;-59
2023/05/30 07:18:40;;;;;;;2.90;1.20;;;18.60;99.90;;;;;;5041031;28;20248;-58
2023/05/30 07:21:07;;;;;;;1.70;1.03;;;18.70;99.90;;;;;;5042938;28;20601;-58
2023/05/30 07:23:34;;;;;;;2.57;1.37;;;18.60;99.90;;;;;;5044244;28;20190;-59
2023/05/30 07:26:00;;;;;;;3.17;1.50;;;18.60;99.90;;;;;;5040446;28;20444;-58
2023/05/30 07:28:25;;;;;;;2.77;1.50;;;18.70;99.90;;;;;;5037525;28;20435;-58
2023/05/30 07:30:51;;;;;;;4.00;1.80;;;18.50;99.90;;;;;;5043267;28;20456;-57
2023/05/30 07:33:16;;;;;;;2.40;1.40;;;18.60;99.90;;;;;;5044066;28;20192;-58
2023/05/30 07:35:42;;;;;;;4.30;1.70;;;18.70;99.90;;;;;;5044001;28;20231;-57
2023/05/30 07:38:08;;;;;;;3.47;1.60;;;18.80;99.90;;;;;;5042926;28;20193;-57
2023/05/30 07:40:34;;;;;;;5.23;1.53;;;19.10;99.90;;;;;;5042195;28;20227;-57
2023/05/30 07:43:00;;;;;;;2.00;1.57;;;19.30;99.90;;;;;;5047023;28;20467;-56
2023/05/30 07:45:25;;;;;;;3.13;1.40;;;19.00;99.90;;;;;;5046579;28;20194;-58
2023/05/30 07:47:51;;;;;;;2.60;1.50;;;19.00;99.90;;;;;;5045117;28;20853;-58
2023/05/30 07:50:17;;;;;;;3.10;1.40;;;19.40;99.90;;;;;;5045572;28;20189;-58
2023/05/30 07:52:42;;;;;;;2.17;1.30;;;19.50;99.90;;;;;;5050187;28;20619;-58
2023/05/30 07:55:08;;;;;;;2.60;1.67;;;19.60;99.90;;;;;;5043927;28;20266;-59
2023/05/30 07:57:34;;;;;;;2.33;1.40;;;19.80;99.90;;;;;;5049675;28;20205;-58
2023/05/30 08:00:00;;;;;;;3.40;1.40;;;20.00;99.90;;;;;;5044947;28;20715;-58
2023/05/30 08:02:25;;;;;;;2.30;1.40;;;20.20;99.90;;;;;;5046208;28;20217;-57
2023/05/30 08:04:55;;;;;;;4.27;1.57;;;20.40;99.90;;;;;;5050080;28;20194;-57
2023/05/30 08:07:21;;;;;;;3.00;1.37;;;20.20;99.90;;;;;;5045836;28;20213;-58
2023/05/30 08:09:46;;;;;;;2.13;1.60;;;19.90;99.90;;;;;;5047138;28;20447;-59
2023/05/30 08:12:20;;;;;;;4.50;1.67;;;19.80;99.90;;;;;;5048271;28;20236;-58
2023/05/30 08:14:47;;;;;;;5.13;1.73;;;19.70;99.90;;;;;;5046250;28;20196;-58
2023/05/30 08:17:16;;;;;;;6.33;2.00;;;19.80;99.90;;;;;;5051264;28;20532;-57
2023/05/30 08:19:45;;;;;;;4.33;1.53;;;19.80;99.90;;;;;;5055434;28;20447;-58
2023/05/30 08:22:10;;;;;;;3.17;1.60;;;19.70;99.90;;;;;;5049098;28;20610;-58
2023/05/30 08:24:36;;;;;;;2.60;1.60;;;19.60;99.90;;;;;;5048388;28;20543;-58
2023/05/30 08:27:06;;;;;;;2.67;1.83;;;19.60;99.90;;;;;;5048435;28;20190;-58
2023/05/30 08:29:33;;;;;;;3.60;2.10;;;20.00;99.90;;;;;;5049857;28;20661;-58
2023/05/30 08:31:58;;;;;;;5.77;2.40;;;20.30;99.90;;;;;;5040724;28;20788;-58
2023/05/30 08:34:24;;;;;;;3.53;1.63;;;20.80;99.90;;;;;;5045668;28;20465;-58
2023/05/30 08:36:53;;;;;;;3.60;1.70;;;20.80;99.90;;;;;;5046863;28;20256;-58
2023/05/30 08:39:19;;;;;;;2.57;1.60;;;21.30;99.90;;;;;;5045291;28;20441;-58
2023/05/30 08:41:45;;;;;;;5.50;2.00;;;21.20;99.90;;;;;;5046750;28;20968;-58
2023/05/30 08:44:11;;;;;;;6.13;1.93;;;21.20;99.90;;;;;;5049145;28;20546;-59
2023/05/30 08:46:42;;;;;;;2.60;1.10;;;21.30;99.90;;;;;;5050928;28;20440;-58
2023/05/30 08:49:12;;;;;;;4.17;1.70;;;20.80;99.90;;;;;;5051365;28;20202;-59
2023/05/30 08:51:42;;;;;;;5.23;1.60;;;20.50;99.90;;;;;;5050259;28;20787;-57
2023/05/30 08:54:13;;;;;;;4.03;1.40;;;20.20;99.90;;;;;;5049529;28;20815;-58
2023/05/30 08:56:44;;;;;;;3.63;1.40;;;20.30;99.90;;;;;;5047503;28;20447;-57
2023/05/30 08:59:11;;;;;;;3.93;1.50;;;20.30;99.90;;;;;;5046049;28;20523;-57
2023/05/30 09:01:38;;;;;;;6.33;1.77;;;20.50;99.90;;;;;;5050107;28;20562;-57
2023/05/30 09:04:07;;;;;;;3.00;1.33;;;20.60;99.90;;;;;;5045026;28;21018;-58
2023/05/30 09:06:36;;;;;;;2.50;1.70;;;20.80;99.90;;;;;;5049320;28;20817;-59
2023/05/30 09:09:03;;;;;;;3.00;1.67;;;20.60;99.90;;;;;;5045280;28;20840;-58
2023/05/30 09:11:29;;;;;;;5.63;1.73;;;20.40;99.90;;;;;;5049843;28;20461;-58
2023/05/30 09:13:56;;;;;;;7.63;2.73;;;20.60;99.90;;;;;;5044644;28;20454;-57
2023/05/30 09:16:22;;;;;;;4.60;1.20;;;20.70;99.90;;;;;;5047119;28;20492;-59
2023/05/30 09:18:48;;;;;;;3.40;1.90;;;21.10;99.90;;;;;;5049374;28;20872;-57
2023/05/30 09:21:14;;;;;;;3.40;1.50;;;21.10;99.90;;;;;;5043267;28;20541;-58
2023/05/30 09:23:42;;;;;;;4.57;2.00;;;21.20;99.90;;;;;;5044789;28;20405;-58
2023/05/30 09:26:13;;;;;;;4.43;2.07;;;21.20;99.90;;;;;;5045125;28;20526;-57
2023/05/30 09:28:38;;;;;;;2.70;1.40;;;21.00;99.90;;;;;;5048269;28;20442;-58
2023/05/30 09:31:06;;;;;;;2.90;1.70;;;21.20;99.90;;;;;;5047376;28;20759;-58
2023/05/30 09:33:40;;;;;;;3.50;1.83;;;21.10;99.90;;;;;;5049812;28;20190;-57
2023/05/30 09:36:12;;;;;;;5.83;1.90;;;21.30;99.90;;;;;;5047517;28;20461;-57
2023/05/30 09:38:38;;;;;;;3.37;1.93;;;21.60;99.90;;;;;;5049282;28;20446;-57
2023/05/30 09:41:04;;;;;;;3.50;1.53;;;21.90;99.90;;;;;;5043685;28;20469;-57
2023/05/30 09:43:34;;;;;;;4.80;1.93;;;22.10;99.90;;;;;;5048958;28;20508;-57
2023/05/30 09:46:05;;;;;;;2.93;1.80;;;22.20;99.90;;;;;;5046916;28;20469;-58
2023/05/30 09:48:31;;;;;;;3.40;1.50;;;22.40;99.90;;;;;;5044136;28;20516;-60
2023/05/30 09:51:01;;;;;;;4.10;1.50;;;22.50;99.90;;;;;;5045172;28;20499;-57
2023/05/30 09:53:31;;;;;;;2.40;1.80;;;22.30;99.90;;;;;;5044515;28;20449;-58
2023/05/30 09:55:57;;;;;;;3.50;1.50;;;22.30;99.90;;;;;;5045042;28;20449;-57
2023/05/30 09:58:24;;;;;;;3.17;1.43;;;22.50;99.90;;;;;;5046579;28;20505;-58
2023/05/30 10:00:51;;;;;;;5.07;1.73;;;22.60;99.90;;;;;;5047111;28;20450;-58
2023/05/30 10:03:19;;;;;;;2.73;1.80;;;22.50;99.90;;;;;;5045419;28;20542;-58
2023/05/30 10:05:45;;;;;;;4.20;1.70;;;22.50;99.90;;;;;;5048804;28;20586;-57
2023/05/30 10:08:11;;;;;;;3.43;1.83;;;22.50;99.90;;;;;;5046285;28;20450;-58
2023/05/30 10:10:39;;;;;;;2.80;1.47;;;22.00;99.90;;;;;;5041765;28;20539;-58
2023/05/30 10:13:05;;;;;;;3.30;1.77;;;21.90;99.90;;;;;;5046840;28;20796;-58
2023/05/30 10:15:31;;;;;;;3.50;1.47;;;21.80;99.90;;;;;;5048330;28;20455;-57
2023/05/30 10:18:07;;;;;;;3.77;1.80;;;22.00;99.90;;;;;;5044339;28;20184;-58
2023/05/30 10:20:43;;;;;;;3.30;2.17;;;22.10;99.90;;;;;;5047477;28;20190;-57
2023/05/30 10:23:11;;;;;;;2.87;1.40;;;22.30;99.90;;;;;;5046597;28;20465;-57
2023/05/30 10:25:43;;;;;;;4.17;2.10;;;22.30;99.90;;;;;;5042503;28;20445;-57
2023/05/30 10:28:17;;;;;;;6.20;1.40;;;22.00;99.90;;;;;;5039765;28;20455;-58
2023/05/30 10:30:44;;;;;;;2.80;1.40;;;21.70;99.90;;;;;;5047585;28;20487;-58
2023/05/30 10:33:11;;;;;;;1.67;1.40;;;21.70;99.90;;;;;;5046921;28;20723;-58
2023/05/30 10:35:37;;;;;;;3.57;1.70;;;21.70;99.90;;;;;;5047143;28;21040;-58
2023/05/30 10:38:11;;;;;;;1.80;1.33;;;21.80;99.90;;;;;;5043374;28;20463;-57
2023/05/30 10:40:47;;;;;;;4.20;1.60;;;21.90;99.90;;;;;;5046930;28;20439;-57
2023/05/30 10:43:37;;;;;;;4.63;1.70;;;22.10;99.90;;;;;;5044086;28;20516;-57
2023/05/30 10:46:24;;;;;;;2.87;1.63;;;21.90;99.90;;;;;;5046656;28;20438;-58
2023/05/30 10:49:01;;;;;;;4.53;1.70;;;21.80;99.90;;;;;;5051022;28;20445;-58
2023/05/30 10:51:27;;;;;;;3.40;1.40;;;22.00;99.90;;;;;;5043638;28;20453;-58
2023/05/30 10:53:52;;;;;;;3.90;1.83;;;22.10;99.90;;;;;;5047548;28;20536;-57
2023/05/30 10:56:43;;;;;;;3.50;1.60;;;22.00;99.90;;;;;;5052975;28;20215;-58
2023/05/30 10:59:17;;;;;;;3.60;1.40;;;22.10;99.90;;;;;;5055075;28;20247;-58
2023/05/30 11:02:01;;;;;;;4.20;1.87;;;22.60;99.90;;;;;;5046578;28;20516;-58
2023/05/30 11:04:35;;;;;;;3.50;1.80;;;22.80;99.90;;;;;;5045595;28;20485;-57
2023/05/30 11:07:03;;;;;;;3.93;1.73;;;22.70;99.90;;;;;;5045239;28;20503;-59
2023/05/30 11:09:29;;;;;;;4.67;2.03;;;22.80;99.90;;;;;;5047435;28;20449;-59
2023/05/30 11:11:56;;;;;;;2.40;1.30;;;23.00;99.90;;;;;;5045164;28;21008;-57
2023/05/30 11:14:26;;;;;;;3.07;1.80;;;22.60;99.90;;;;;;5046369;28;20282;-57
2023/05/30 11:16:55;;;;;;;2.87;1.47;;;22.50;99.90;;;;;;5045690;28;20449;-57
2023/05/30 11:19:40;;;;;;;3.03;1.60;;;22.50;99.90;;;;;;5046906;28;20539;-57
2023/05/30 11:22:17;;;;;;;3.47;1.73;;;22.50;99.90;;;;;;5043318;28;20463;-58
2023/05/30 11:24:44;;;;;;;4.03;1.60;;;22.60;99.90;;;;;;5044407;28;22439;-58
2023/05/30 11:27:16;;;;;;;3.07;1.47;;;22.70;99.90;;;;;;5044537;28;20468;-59
2023/05/30 11:29:44;;;;;;;3.80;1.60;;;22.50;99.90;;;;;;5043693;28;20437;-56
2023/05/30 11:32:11;;;;;;;4.03;2.03;;;22.50;99.90;;;;;;5044989;28;20841;-57
2023/05/30 11:34:37;;;;;;;5.63;1.80;;;22.60;99.90;;;;;;5047656;28;20923;-59
2023/05/30 11:37:04;;;;;;;3.43;2.47;;;22.90;99.90;;;;;;5043546;28;20494;-58
2023/05/30 11:39:36;;;;;;;5.00;1.83;;;23.10;99.90;;;;;;5046529;28;21708;-58
2023/05/30 11:42:05;;;;;;;3.23;1.90;;;23.40;99.90;;;;;;5045405;28;20898;-58
2023/05/30 11:44:31;;;;;;;2.93;1.90;;;23.20;99.90;;;;;;5046890;28;20533;-57
2023/05/30 11:47:02;;;;;;;5.90;2.50;;;22.90;99.90;;;;;;5045424;28;20463;-59
2023/05/30 11:49:28;;;;;;;3.07;1.70;;;22.80;99.90;;;;;;5043717;28;20526;-58
2023/05/30 11:51:54;;;;;;;3.37;1.70;;;23.00;99.90;;;;;;5045650;28;20442;-58
2023/05/30 11:54:20;;;;;;;4.33;2.00;;;23.40;99.90;;;;;;5046168;28;20958;-58
2023/05/30 11:56:47;;;;;;;2.70;1.40;;;23.60;99.90;;;;;;5047383;28;20914;-58
2023/05/30 11:59:17;;;;;;;3.85;1.50;;;23.70;99.90;;;;;;5044757;28;20822;-58
2023/05/30 12:01:44;;;;;;;5.83;2.60;;;23.70;99.90;;;;;;5051566;28;20572;-58
2023/05/30 12:04:09;;;;;;;4.90;2.70;;;23.90;99.90;;;;;;5039285;28;21035;-57
2023/05/30 12:06:35;;;;;;;5.77;3.10;;;23.70;99.90;;;;;;5043483;28;20529;-58
2023/05/30 12:09:01;;;;;;;4.80;4.10;;;23.50;99.90;;;;;;5045460;28;20326;-58
2023/05/30 12:11:26;;;;;;;5.53;2.90;;;23.00;99.90;;;;;;5046512;28;20452;-58
2023/05/30 12:13:55;;;;;;;2.40;1.70;;;23.10;99.90;;;;;;5045968;28;20302;-57
2023/05/30 12:16:20;;;;;;;3.07;2.63;;;23.10;99.90;;;;;;5045274;28;20227;-57
2023/05/30 12:18:46;;;;;;;5.10;2.30;;;23.10;99.90;;;;;;5044763;28;20946;-58
2023/05/30 12:21:15;;;;;;;3.57;1.97;;;23.10;99.90;;;;;;5045792;28;20215;-58
2023/05/30 12:23:42;;;;;;;4.60;2.10;;;23.00;99.90;;;;;;5043444;28;20180;-58
2023/05/30 12:26:16;;;;;;;6.67;2.20;;;23.00;99.90;;;;;;5045840;28;20805;-59
2023/05/30 12:28:49;;;;;;;2.00;1.80;;;23.00;99.90;;;;;;5042987;28;20534;-58
2023/05/30 12:31:22;;;;;;;2.47;1.60;;;23.20;99.90;;;;;;5045297;28;20811;-57
2023/05/30 12:33:47;;;;;;;3.83;1.70;;;23.50;99.90;;;;;;5038197;28;20546;-57
2023/05/30 12:36:13;;;;;;;3.20;2.03;;;23.80;99.90;;;;;;5039289;28;20450;-57
2023/05/30 12:38:39;;;;;;;3.30;1.90;;;23.60;99.90;;;;;;5046795;28;20234;-59
2023/05/30 12:41:05;;;;;;;3.07;1.90;;;23.50;99.90;;;;;;5046537;28;20206;-58
2023/05/30 12:43:31;;;;;;;3.67;1.87;;;23.30;99.90;;;;;;5048936;28;20190;-58
2023/05/30 12:46:01;;;;;;;4.13;1.80;;;23.20;99.90;;;;;;5049038;28;20447;-57
2023/05/30 12:48:27;;;;;;;4.53;1.60;;;23.20;99.90;;;;;;5050680;28;20694;-58